FAMM/MBD METAR and TAF weather

Enter ICAO airport designator
Station Type Date Time Source
FAMM METAR 2019/05/19 20:00 UTC NOAA

FAMM 192000Z AUTO 04006KT //// // ////// 11/03 Q1024


Station Type Date Time Source
FAMM Decoded METAR 2019/05/19 20:00 UTC NOAA

Mafikeng Intl. Ad, South Africa (FAMM) 25-47S 025-32E 1300M
May 19, 2019 - 04:00 PM EDT / 2019.05.19 2000 UTC
Wind: from the NE (040 degrees) at 7 MPH (6 KT):0
Temperature: 51 F (11 C)
Dew Point: 37 F (3 C)
Relative Humidity: 57%
Pressure (altimeter): 30.24 in. Hg (1024 hPa)
ob: FAMM 192000Z AUTO 04006KT //// // ////// 11/03 Q1024
cycle: 20

Station Type Date Time Source
FAMM TAF 2019/01/01 10:00 UTC NOAA

TAF FAMM 010900Z 0110/0118 04008KT 9999 BKN015
BECMG 0111/0113 34010KT BKN025 TX25/0113Z TN22/0118Z

Example: see airport list